Time;durP1;ratioP1;P1;durP2;ratioP2;P2;SDS_P1;SDS_P2;PMS_P1;PMS_P2;Temp;Humidity;BMP_temperature;BMP_pressure;BME280_temperature;BME280_humidity;BME280_pressure;Samples;Min_cycle;Max_cycle;Signal;HPM_P1;HPM_P2
2023/08/19 00:01:32;;;;;;;1.40;0.90;;;;;;;18.84;100.00;100281.52;105412;1254;66741;-49
2023/08/19 00:04:00;;;;;;;2.40;0.80;;;;;;;18.83;100.00;100280.69;105406;1259;71414;-52
2023/08/19 00:06:36;;;;;;;2.00;0.90;;;;;;;18.82;100.00;100276.98;105420;1260;61653;-49
2023/08/19 00:09:04;;;;;;;4.80;1.10;;;;;;;18.79;100.00;100279.71;106599;1259;61186;-52
2023/08/19 00:11:32;;;;;;;8.50;1.10;;;;;;;18.76;100.00;100276.36;105929;1257;71689;-50
2023/08/19 00:13:59;;;;;;;5.20;1.30;;;;;;;18.73;100.00;100276.91;105366;1254;66879;-50
2023/08/19 00:16:27;;;;;;;2.20;1.60;;;;;;;18.71;100.00;100275.80;105684;1255;72856;-48
2023/08/19 00:18:54;;;;;;;2.10;1.10;;;;;;;18.70;100.00;100273.70;105361;1257;60534;-50
2023/08/19 00:21:22;;;;;;;1.70;1.00;;;;;;;18.67;100.00;100269.70;105288;1254;60550;-49
2023/08/19 00:23:50;;;;;;;2.70;1.00;;;;;;;18.63;100.00;100263.45;105447;1254;73821;-51
2023/08/19 00:26:17;;;;;;;2.00;1.20;;;;;;;18.59;100.00;100267.96;105494;1254;66772;-51
2023/08/19 00:28:44;;;;;;;2.40;0.90;;;;;;;18.57;100.00;100266.66;105570;1254;71419;-49
2023/08/19 00:31:12;;;;;;;4.50;1.10;;;;;;;18.53;100.00;100263.61;105558;1259;60581;-49
2023/08/19 00:33:39;;;;;;;3.50;0.80;;;;;;;18.51;100.00;100264.91;105158;1259;60596;-48
2023/08/19 00:36:07;;;;;;;1.40;1.00;;;;;;;18.49;100.00;100262.86;105231;1254;72636;-50
2023/08/19 00:38:34;;;;;;;6.30;1.00;;;;;;;18.49;100.00;100267.05;105401;1258;66964;-48
2023/08/19 00:41:03;;;;;;;2.00;1.10;;;;;;;18.50;100.00;100264.06;105387;1260;73255;-52
2023/08/19 00:43:33;;;;;;;3.40;1.00;;;;;;;18.51;100.00;100266.52;105183;1263;60524;-48
2023/08/19 00:46:01;;;;;;;2.90;0.90;;;;;;;18.53;100.00;100260.39;105524;1254;60468;-50
2023/08/19 00:48:30;;;;;;;1.30;1.20;;;;;;;18.53;100.00;100255.61;105447;1254;74587;-50
2023/08/19 00:50:58;;;;;;;3.10;1.10;;;;;;;18.54;100.00;100251.91;105464;1254;67665;-49
2023/08/19 00:53:26;;;;;;;4.60;0.90;;;;;;;18.54;100.00;100247.17;105530;1257;71841;-49
2023/08/19 00:55:53;;;;;;;2.10;0.90;;;;;;;18.55;100.00;100244.22;105480;1254;61767;-50
2023/08/19 00:58:21;;;;;;;1.30;0.90;;;;;;;18.55;100.00;100242.04;105316;1255;60569;-50
2023/08/19 01:00:48;;;;;;;4.10;1.20;;;;;;;18.55;100.00;100243.50;105284;1259;73818;-49
2023/08/19 01:03:16;;;;;;;3.30;1.10;;;;;;;18.54;100.00;100242.82;105305;1258;66614;-49
2023/08/19 01:06:08;;;;;;;2.80;0.90;;;;;;;18.53;100.00;100238.73;105332;1259;72725;-50
2023/08/19 01:08:59;;;;;;;1.10;0.90;;;;;;;18.52;100.00;100234.41;104972;1254;61808;-50
2023/08/19 01:11:46;;;;;;;1.10;1.00;;;;;;;18.53;100.00;100236.02;105385;1255;60520;-50
2023/08/19 01:14:31;;;;;;;2.60;1.30;;;;;;;18.51;100.00;100235.04;105413;1257;73860;-49
2023/08/19 01:16:59;;;;;;;1.30;1.20;;;;;;;18.49;100.00;100239.17;105350;1259;66868;-51
2023/08/19 01:19:30;;;;;;;1.30;1.20;;;;;;;18.47;100.00;100242.10;105251;1259;72893;-48
2023/08/19 01:22:02;;;;;;;3.70;1.10;;;;;;;18.45;100.00;100240.39;105338;1260;61634;-50
2023/08/19 01:24:36;;;;;;;1.20;1.00;;;;;;;18.43;100.00;100237.46;107075;1256;60487;-47
2023/08/19 01:27:05;;;;;;;4.70;1.60;;;;;;;18.42;100.00;100237.41;105156;1254;74263;-48
2023/08/19 01:29:32;;;;;;;6.60;1.50;;;;;;;18.38;100.00;100236.55;105260;1255;65851;-51
2023/08/19 01:31:59;;;;;;;5.30;1.20;;;;;;;18.36;100.00;100238.41;105372;1259;71787;-48
2023/08/19 01:34:27;;;;;;;2.20;1.30;;;;;;;18.32;100.00;100245.02;105266;1254;60663;-49
2023/08/19 01:36:59;;;;;;;3.60;1.30;;;;;;;18.26;100.00;100242.20;105433;1258;60456;-50
2023/08/19 01:39:26;;;;;;;1.40;1.20;;;;;;;18.22;100.00;100243.38;105662;1259;73831;-53
2023/08/19 01:41:53;;;;;;;2.20;0.90;;;;;;;18.20;100.00;100242.11;105200;1254;66139;-52
2023/08/19 01:44:22;;;;;;;1.60;1.00;;;;;;;18.16;100.00;100242.52;105743;1255;71248;-49
2023/08/19 01:46:49;;;;;;;2.20;1.00;;;;;;;18.13;100.00;100241.80;105372;1259;61662;-49
2023/08/19 01:49:16;;;;;;;2.10;1.10;;;;;;;18.09;100.00;100239.94;105255;1259;60457;-49
2023/08/19 01:51:43;;;;;;;3.10;0.90;;;;;;;18.04;100.00;100235.16;105436;1254;74401;-49
2023/08/19 01:54:11;;;;;;;2.40;1.10;;;;;;;18.03;100.00;100236.95;105217;1259;67846;-53
2023/08/19 01:56:38;;;;;;;4.50;1.30;;;;;;;18.02;100.00;100234.49;105322;1259;72409;-53
2023/08/19 01:59:05;;;;;;;5.90;1.00;;;;;;;18.03;100.00;100232.96;105301;1257;60952;-51
2023/08/19 02:01:33;;;;;;;1.70;1.00;;;;;;;18.04;100.00;100230.85;105331;1260;60910;-48
2023/08/19 02:04:00;;;;;;;1.40;1.10;;;;;;;18.06;100.00;100235.05;105461;1254;73795;-50
2023/08/19 02:06:29;;;;;;;3.20;1.30;;;;;;;18.09;100.00;100233.97;105311;1258;65819;-49
2023/08/19 02:08:56;;;;;;;4.20;1.30;;;;;;;18.11;100.00;100231.44;105414;1253;72567;-50
2023/08/19 02:11:23;;;;;;;3.60;1.30;;;;;;;18.12;100.00;100232.84;105415;1260;60622;-49
2023/08/19 02:13:52;;;;;;;2.40;1.20;;;;;;;18.12;100.00;100228.98;105307;1255;60289;-50
2023/08/19 02:16:19;;;;;;;1.50;1.40;;;;;;;18.13;100.00;100227.32;105287;1259;73816;-50
2023/08/19 02:18:46;;;;;;;1.50;1.40;;;;;;;18.13;100.00;100229.11;105426;1253;67196;-51
2023/08/19 02:21:15;;;;;;;5.00;1.90;;;;;;;18.12;100.00;100232.10;109096;1253;72091;-51
2023/08/19 02:23:42;;;;;;;1.70;1.30;;;;;;;18.05;100.00;100235.52;108985;1254;60100;-49
2023/08/19 02:26:11;;;;;;;1.80;1.50;;;;;;;17.99;100.00;100235.56;106269;1259;60441;-50
2023/08/19 02:28:38;;;;;;;2.90;1.20;;;;;;;17.99;100.00;100234.86;105347;1254;73794;-48
2023/08/19 02:31:06;;;;;;;2.40;1.30;;;;;;;18.00;100.00;100233.19;105292;1259;66566;-50
2023/08/19 02:33:33;;;;;;;4.60;1.20;;;;;;;18.01;100.00;100238.56;105360;1254;73002;-52
2023/08/19 02:36:01;;;;;;;3.70;1.70;;;;;;;18.01;100.00;100236.70;109093;1254;60470;-51
2023/08/19 02:38:28;;;;;;;1.80;1.10;;;;;;;18.02;100.00;100240.24;109046;1254;58134;-51
2023/08/19 02:40:56;;;;;;;1.90;1.30;;;;;;;18.03;100.00;100239.68;108873;1253;73790;-49
2023/08/19 02:43:23;;;;;;;3.70;1.10;;;;;;;18.03;100.00;100239.33;109056;1254;67908;-49
2023/08/19 02:45:53;;;;;;;2.90;1.50;;;;;;;18.03;100.00;100238.79;106334;1260;72063;-51
2023/08/19 02:48:20;;;;;;;2.20;1.70;;;;;;;18.03;100.00;100241.10;105401;1257;60705;-49
2023/08/19 02:50:48;;;;;;;1.60;1.50;;;;;;;18.03;100.00;100240.56;105578;1256;60410;-50
2023/08/19 02:53:15;;;;;;;2.30;1.70;;;;;;;18.01;100.00;100243.25;105286;1254;74403;-50
2023/08/19 02:55:42;;;;;;;4.00;2.30;;;;;;;18.00;100.00;100243.18;105169;1255;67259;-50
2023/08/19 02:58:13;;;;;;;5.30;2.30;;;;;;;17.99;100.00;100246.48;105322;1255;71855;-50
2023/08/19 03:00:41;;;;;;;2.50;2.20;;;;;;;17.99;100.00;100246.69;105302;1259;61512;-50
2023/08/19 03:03:08;;;;;;;3.70;2.70;;;;;;;17.96;100.00;100247.27;105747;1254;60986;-50
2023/08/19 03:05:39;;;;;;;1.90;1.80;;;;;;;17.92;100.00;100247.34;105562;1254;73849;-50
2023/08/19 03:08:07;;;;;;;2.10;2.00;;;;;;;17.90;100.00;100249.65;105363;1259;65629;-50
2023/08/19 03:10:35;;;;;;;2.50;2.30;;;;;;;17.87;100.00;100253.30;105361;1258;72305;-50
2023/08/19 03:13:04;;;;;;;2.80;2.10;;;;;;;17.86;100.00;100250.52;105371;1255;61599;-50
2023/08/19 03:15:31;;;;;;;1.60;1.40;;;;;;;17.85;100.00;100248.77;105172;1254;307796;-51
2023/08/19 03:18:42;;;;;;;1.80;1.70;;;;;;;17.88;100.00;100285.80;102688;1286;602768;-50
2023/08/19 03:21:11;;;;;;;1.60;1.50;;;;;;;17.88;100.00;100282.84;104419;1267;62189;-50
2023/08/19 03:23:38;;;;;;;1.30;1.20;;;;;;;17.88;100.00;100276.52;104313;1267;60009;-49
2023/08/19 03:26:05;;;;;;;1.80;1.50;;;;;;;17.87;100.00;100274.61;104584;1272;72201;-49
2023/08/19 03:28:33;;;;;;;1.60;1.40;;;;;;;17.88;100.00;100272.84;105060;1260;65681;-50
2023/08/19 03:31:07;;;;;;;5.30;2.00;;;;;;;17.91;100.00;100266.34;104996;1261;71127;-50
2023/08/19 03:33:35;;;;;;;4.00;1.30;;;;;;;17.93;100.00;100262.52;105418;1264;128921;-49
2023/08/19 03:36:03;;;;;;;6.70;1.70;;;;;;;17.96;100.00;100259.59;105196;1257;59310;-47
2023/08/19 03:38:31;;;;;;;2.40;2.10;;;;;;;17.99;100.00;100257.04;106518;1258;72677;-50
2023/08/19 03:40:59;;;;;;;2.30;1.80;;;;;;;18.02;100.00;100255.02;105280;1257;65629;-49
2023/08/19 03:43:27;;;;;;;1.80;1.70;;;;;;;18.05;100.00;100255.66;105131;1263;72727;-49
2023/08/19 03:45:55;;;;;;;4.30;1.70;;;;;;;18.09;100.00;100257.95;105057;1257;61540;-49
2023/08/19 03:48:22;;;;;;;3.50;2.10;;;;;;;18.13;100.00;100254.70;104910;1258;59949;-50
2023/08/19 03:50:49;;;;;;;1.70;1.60;;;;;;;18.18;100.00;100252.63;104917;1263;73047;-50
2023/08/19 03:53:17;;;;;;;1.60;1.50;;;;;;;18.19;100.00;100250.52;105143;1264;69281;-50
2023/08/19 03:55:47;;;;;;;1.70;1.60;;;;;;;18.21;100.00;100251.63;105037;1260;74895;-50
2023/08/19 03:58:14;;;;;;;3.40;1.70;;;;;;;18.25;100.00;100254.05;106166;1265;61405;-48
2023/08/19 04:00:42;;;;;;;1.80;1.70;;;;;;;18.31;100.00;100251.27;105025;1257;60028;-50
2023/08/19 04:03:09;;;;;;;2.10;2.00;;;;;;;18.37;100.00;100249.58;105147;1258;73074;-49
2023/08/19 04:05:37;;;;;;;2.10;1.90;;;;;;;18.41;100.00;100251.09;104869;1258;66525;-50
2023/08/19 04:08:05;;;;;;;9.90;1.80;;;;;;;18.46;100.00;100252.31;105139;1264;70907;-49
2023/08/19 04:10:32;;;;;;;1.60;1.40;;;;;;;18.53;100.00;100249.81;104939;1264;61653;-48
2023/08/19 04:13:00;;;;;;;3.60;1.50;;;;;;;18.65;100.00;100252.30;104948;1263;59746;-48
2023/08/19 04:15:30;;;;;;;4.50;1.60;;;;;;;18.80;100.00;100252.17;105033;1257;73597;-49
2023/08/19 04:17:57;;;;;;;2.60;1.40;;;;;;;18.98;100.00;100251.40;105188;1261;67719;-49
2023/08/19 04:20:25;;;;;;;3.30;1.40;;;;;;;19.14;100.00;100249.50;104830;1260;71475;-49
2023/08/19 04:22:52;;;;;;;1.50;1.40;;;;;;;19.28;100.00;100251.83;104900;1260;61716;-51
2023/08/19 04:25:20;;;;;;;3.40;2.20;;;;;;;19.42;100.00;100245.85;104867;1266;59657;-49
2023/08/19 04:27:47;;;;;;;5.20;2.30;;;;;;;19.54;100.00;100241.66;104847;1264;73049;-49
2023/08/19 04:30:15;;;;;;;1.60;1.40;;;;;;;19.68;100.00;100242.55;104872;1261;70574;-48
2023/08/19 04:32:42;;;;;;;3.00;2.30;;;;;;;19.89;100.00;100238.52;104929;1264;72660;-50
2023/08/19 04:35:10;;;;;;;4.30;2.10;;;;;;;20.22;100.00;100241.16;108639;1260;60009;-50
2023/08/19 04:37:39;;;;;;;2.50;2.30;;;;;;;20.61;100.00;100233.27;106266;1265;59765;-50
2023/08/19 04:40:09;;;;;;;2.60;2.40;;;;;;;20.95;100.00;100230.98;104911;1263;73395;-49
2023/08/19 04:42:39;;;;;;;6.70;3.20;;;;;;;21.19;100.00;100226.36;105141;1265;66597;-50
2023/08/19 04:45:09;;;;;;;5.90;4.00;;;;;;;21.42;100.00;100226.49;104842;1261;73154;-48
2023/08/19 04:47:42;;;;;;;4.90;4.50;;;;;;;21.62;100.00;100231.45;105176;1263;60499;-51
2023/08/19 04:50:10;;;;;;;5.00;3.70;;;;;;;21.73;100.00;100231.27;108393;1260;60100;-52
2023/08/19 04:52:37;;;;;;;7.00;6.40;;;;;;;21.79;100.00;100231.64;108620;1260;71843;-51
2023/08/19 04:55:08;;;;;;;6.10;5.50;;;;;;;21.83;100.00;100227.94;108630;1259;66133;-51
2023/08/19 04:57:35;;;;;;;5.80;5.40;;;;;;;21.87;100.00;100226.29;108473;1260;73410;-52
2023/08/19 05:00:03;;;;;;;6.70;5.70;;;;;;;21.90;100.00;100231.92;108648;1260;60793;-51
2023/08/19 05:02:31;;;;;;;7.10;5.60;;;;;;;21.93;100.00;100235.21;108576;1260;60047;-51
2023/08/19 05:04:58;;;;;;;6.80;6.30;;;;;;;21.96;100.00;100235.80;108651;1259;71874;-51
2023/08/19 05:07:26;;;;;;;5.20;4.90;;;;;;;22.00;100.00;100240.39;105337;1262;66756;-51
2023/08/19 05:09:54;;;;;;;6.50;5.40;;;;;;;22.06;100.00;100243.32;104784;1260;72783;-52
2023/08/19 05:12:25;;;;;;;6.60;5.60;;;;;;;22.14;100.00;100246.13;104874;1265;60406;-51
2023/08/19 05:14:52;;;;;;;6.40;5.40;;;;;;;22.24;100.00;100252.31;104963;1261;59186;-52
2023/08/19 05:17:20;;;;;;;5.30;4.90;;;;;;;22.35;100.00;100255.41;105721;1265;73067;-52
2023/08/19 05:19:48;;;;;;;5.30;4.70;;;;;;;22.45;100.00;100256.11;104866;1267;64548;-52
2023/08/19 05:22:15;;;;;;;5.00;4.60;;;;;;;22.56;100.00;100260.05;108613;1259;72221;-52
2023/08/19 05:24:42;;;;;;;8.40;5.70;;;;;;;22.66;100.00;100260.21;106127;1260;60385;-50
2023/08/19 05:27:10;;;;;;;7.20;5.60;;;;;;;22.76;100.00;100261.96;104824;1264;60119;-51
2023/08/19 05:29:37;;;;;;;6.60;6.10;;;;;;;22.85;100.00;100262.02;104825;1260;73305;-50
2023/08/19 05:32:05;;;;;;;7.60;6.40;;;;;;;22.93;100.00;100259.39;105031;1260;66004;-51
2023/08/19 05:34:33;;;;;;;6.60;6.20;;;;;;;23.02;100.00;100262.14;104987;1263;73415;-51
2023/08/19 05:37:04;;;;;;;7.30;6.10;;;;;;;23.09;100.00;100265.08;108585;1259;60384;-52
2023/08/19 05:39:31;;;;;;;5.90;5.40;;;;;;;23.17;100.00;100269.92;108651;1259;58802;-52
2023/08/19 05:41:59;;;;;;;4.50;4.00;;;;;;;23.23;100.00;100272.04;106120;1263;73500;-50
2023/08/19 05:44:26;;;;;;;5.90;3.70;;;;;;;23.30;100.00;100274.08;104977;1260;68386;-50
2023/08/19 05:46:54;;;;;;;6.60;3.90;;;;;;;23.39;100.00;100273.26;104915;1260;71318;-50
2023/08/19 05:49:21;;;;;;;4.70;4.30;;;;;;;23.49;100.00;100276.05;104940;1260;59761;-50
2023/08/19 05:51:49;;;;;;;6.20;5.60;;;;;;;23.58;100.00;100282.17;104947;1266;61572;-50
2023/08/19 05:54:16;;;;;;;5.30;5.00;;;;;;;23.68;100.00;100283.05;104950;1260;72941;-50
2023/08/19 05:56:43;;;;;;;5.60;5.10;;;;;;;23.76;100.00;100284.27;104649;1263;67273;-49
2023/08/19 05:59:11;;;;;;;4.90;4.10;;;;;;;23.86;100.00;100289.42;104509;1263;73123;-51
2023/08/19 06:01:38;;;;;;;7.00;6.50;;;;;;;23.93;100.00;100288.13;104652;1264;59637;-49
2023/08/19 06:04:05;;;;;;;6.10;5.00;;;;;;;24.02;100.00;100296.83;104348;1260;59638;-49
2023/08/19 06:06:33;;;;;;;10.20;5.30;;;;;;;24.09;100.00;100301.63;104475;1260;71740;-50
2023/08/19 06:09:00;;;;;;;4.60;3.90;;;;;;;24.17;100.00;100301.44;104484;1261;67198;-51
2023/08/19 06:11:28;;;;;;;5.00;3.60;;;;;;;24.24;100.00;100301.34;104948;1262;72861;-49
2023/08/19 06:13:55;;;;;;;5.10;4.50;;;;;;;24.31;100.00;100300.98;104952;1263;59759;-50
2023/08/19 06:16:22;;;;;;;6.80;4.20;;;;;;;24.40;100.00;100304.31;104410;1262;60056;-51
2023/08/19 06:18:50;;;;;;;7.00;4.80;;;;;;;24.50;100.00;100313.84;104555;1257;73030;-52
2023/08/19 06:21:17;;;;;;;8.10;5.00;;;;;;;24.59;100.00;100315.17;104754;1263;65562;-51
2023/08/19 06:23:45;;;;;;;7.90;4.80;;;;;;;24.67;100.00;100317.98;105133;1261;72388;-50
2023/08/19 06:26:12;;;;;;;5.60;5.10;;;;;;;24.74;100.00;100318.98;105240;1263;60608;-52
2023/08/19 06:28:39;;;;;;;10.40;5.50;;;;;;;24.80;100.00;100318.92;105184;1257;62820;-50
2023/08/19 06:31:07;;;;;;;7.00;4.10;;;;;;;24.86;100.00;100322.02;105211;1262;72796;-51
2023/08/19 06:33:35;;;;;;;9.70;4.00;;;;;;;24.92;100.00;100326.46;105282;1263;67751;-52
2023/08/19 06:36:02;;;;;;;4.20;3.80;;;;;;;24.97;100.00;100329.80;106826;1257;75696;-51
2023/08/19 06:38:29;;;;;;;8.40;4.80;;;;;;;25.02;100.00;100333.44;104965;1261;60469;-51
2023/08/19 06:41:02;;;;;;;7.60;4.40;;;;;;;25.10;100.00;100340.02;105158;1262;60086;-52
2023/08/19 06:43:30;;;;;;;9.90;4.80;;;;;;;25.17;100.00;100348.70;105504;1262;72970;-53
2023/08/19 06:45:58;;;;;;;4.60;4.20;;;;;;;25.23;100.00;100357.29;105099;1257;66453;-50
2023/08/19 06:48:26;;;;;;;3.90;3.50;;;;;;;25.29;100.00;100357.24;105012;1257;73188;-52
2023/08/19 06:50:54;;;;;;;3.90;3.50;;;;;;;25.33;100.00;100366.52;105427;1263;60075;-50
2023/08/19 06:53:22;;;;;;;3.50;3.10;;;;;;;25.38;100.00;100368.56;105256;1257;59840;-51
2023/08/19 06:56:13;;;;;;;3.60;2.60;;;;;;;25.43;100.00;100373.38;105153;1256;73561;-51
2023/08/19 06:58:44;;;;;;;6.70;2.70;;;;;;;25.49;100.00;100378.38;105100;1258;66652;-51
2023/08/19 07:01:20;;;;;;;3.30;2.70;;;;;;;25.55;100.00;100379.20;105198;1259;73122;-50
2023/08/19 07:03:47;;;;;;;4.30;1.90;;;;;;;25.62;100.00;100386.08;105320;1263;60862;-51
2023/08/19 07:06:16;;;;;;;4.80;2.10;;;;;;;25.70;100.00;100392.26;105397;1256;59962;-51
2023/08/19 07:08:43;;;;;;;4.10;1.90;;;;;;;25.77;100.00;100393.91;105124;1262;70729;-51
2023/08/19 07:11:11;;;;;;;4.10;2.30;;;;;;;25.83;100.00;100399.30;105020;1260;66245;-51
2023/08/19 07:13:39;;;;;;;3.90;2.20;;;;;;;25.90;100.00;100397.83;105504;1257;72644;-51
2023/08/19 07:16:06;;;;;;;3.00;2.20;;;;;;;25.98;100.00;100402.53;105168;1257;59617;-50
2023/08/19 07:18:38;;;;;;;4.60;2.10;;;;;;;26.06;100.00;100407.61;104925;1257;59663;-50
2023/08/19 07:21:08;;;;;;;7.50;2.10;;;;;;;26.12;100.00;100406.66;105938;1260;72803;-52
2023/08/19 07:23:35;;;;;;;3.70;2.20;;;;;;;26.15;100.00;100412.04;105128;1263;69361;-52
2023/08/19 07:26:03;;;;;;;7.10;2.00;;;;;;;26.20;100.00;100416.31;104920;1258;72726;-53
2023/08/19 07:28:30;;;;;;;3.10;2.20;;;;;;;26.24;100.00;100419.02;105115;1263;60485;-52
2023/08/19 07:30:58;;;;;;;3.20;2.30;;;;;;;26.29;100.00;100414.06;105089;1257;60460;-53
2023/08/19 07:33:26;;;;;;;3.80;1.80;;;;;;;26.34;100.00;100417.05;105310;1262;74242;-53
2023/08/19 07:35:53;;;;;;;3.90;2.20;;;;;;;26.39;100.00;100418.43;104544;1262;66770;-52
2023/08/19 07:38:20;;;;;;;2.30;2.10;;;;;;;26.45;100.00;100420.52;105084;1263;72501;-53
2023/08/19 07:40:48;;;;;;;7.00;2.70;;;;;;;26.52;100.00;100422.79;104946;1260;60559;-51
2023/08/19 07:43:15;;;;;;;2.20;2.10;;;;;;;26.57;100.00;100424.00;105100;1257;60568;-52
2023/08/19 07:45:42;;;;;;;2.60;2.30;;;;;;;26.64;100.00;100431.95;105182;1257;74025;-50
2023/08/19 07:48:10;;;;;;;5.30;2.00;;;;;;;26.71;100.00;100435.43;105186;1257;66733;-52
2023/08/19 07:50:37;;;;;;;3.00;2.20;;;;;;;26.76;100.00;100439.02;105154;1257;72672;-52
2023/08/19 07:53:04;;;;;;;2.60;2.40;;;;;;;26.80;100.00;100443.42;105035;1257;60563;-51
2023/08/19 07:55:32;;;;;;;3.00;2.20;;;;;;;26.83;100.00;100442.48;105141;1257;60542;-50
2023/08/19 07:57:59;;;;;;;3.40;2.10;;;;;;;26.86;100.00;100442.11;104971;1260;73806;-49
2023/08/19 08:00:27;;;;;;;2.50;2.30;;;;;;;26.92;100.00;100449.10;105140;1257;67036;-53
2023/08/19 08:02:54;;;;;;;5.20;1.90;;;;;;;26.96;100.00;100448.64;105099;1262;72623;-52
2023/08/19 08:05:21;;;;;;;2.70;2.40;;;;;;;27.03;100.00;100454.02;105190;1258;60430;-52
2023/08/19 08:07:49;;;;;;;5.80;2.60;;;;;;;27.08;100.00;100456.52;105169;1263;60535;-52
2023/08/19 08:10:16;;;;;;;3.00;1.90;;;;;;;27.15;100.00;100459.59;105169;1257;73812;-52
2023/08/19 08:12:44;;;;;;;2.90;2.10;;;;;;;27.21;100.00;100462.64;104957;1257;66684;-52
2023/08/19 08:15:12;;;;;;;1.70;1.40;;;;;;;27.25;100.00;100464.41;105173;1263;72636;-51
2023/08/19 08:17:40;;;;;;;7.40;2.70;;;;;;;27.29;100.00;100467.04;106863;1260;61897;-50
2023/08/19 08:20:08;;;;;;;3.70;2.10;;;;;;;27.34;100.00;100463.95;105006;1259;60373;-50
2023/08/19 08:22:35;;;;;;;3.10;2.80;;;;;;;27.39;100.00;100465.54;104952;1263;74830;-52
2023/08/19 08:25:09;;;;;;;27.70;3.60;;;;;;;27.47;100.00;100469.38;108766;1259;66723;-53
2023/08/19 08:27:36;;;;;;;5.00;2.20;;;;;;;27.56;100.00;100466.61;105078;1260;73087;-50
2023/08/19 08:30:05;;;;;;;7.10;2.20;;;;;;;27.64;100.00;100473.05;104814;1260;60904;-51
2023/08/19 08:32:32;;;;;;;2.90;2.60;;;;;;;27.71;100.00;100469.90;105642;1262;60579;-53
2023/08/19 08:35:00;;;;;;;2.70;2.00;;;;;;;27.79;100.00;100475.95;105180;1260;74844;-51
2023/08/19 08:37:27;;;;;;;3.00;1.20;;;;;;;27.86;100.00;100477.98;104921;1259;65992;-53
2023/08/19 08:39:54;;;;;;;3.50;1.20;;;;;;;27.93;100.00;100480.05;105105;1262;72658;-51
2023/08/19 08:42:23;;;;;;;4.30;2.10;;;;;;;28.02;100.00;100485.34;105046;1260;60594;-52
2023/08/19 08:44:50;;;;;;;4.20;1.70;;;;;;;28.11;100.00;100485.23;104963;1262;60512;-51
2023/08/19 08:47:19;;;;;;;4.10;1.50;;;;;;;28.19;100.00;100486.89;105039;1259;73765;-51
2023/08/19 08:49:47;;;;;;;1.80;1.20;;;;;;;28.27;100.00;100484.77;105176;1260;65504;-52
2023/08/19 08:52:15;;;;;;;3.00;1.50;;;;;;;28.36;100.00;100491.95;104945;1260;73401;-51
2023/08/19 08:54:42;;;;;;;3.30;1.90;;;;;;;28.45;100.00;100494.35;104951;1264;60416;-52
2023/08/19 08:57:10;;;;;;;1.90;1.30;;;;;;;28.53;100.00;100500.66;106775;1264;60052;-52
2023/08/19 08:59:37;;;;;;;4.70;1.80;;;;;;;28.60;100.00;100502.84;104999;1260;74664;-51
2023/08/19 09:02:04;;;;;;;1.60;1.50;;;;;;;28.68;100.00;100509.02;105058;1260;67595;-52
2023/08/19 09:04:32;;;;;;;2.90;1.80;;;;;;;28.74;100.00;100509.80;104946;1259;72672;-52
2023/08/19 09:07:10;;;;;;;2.80;1.90;;;;;;;28.79;100.00;100516.91;105573;1258;60614;-51
2023/08/19 09:09:39;;;;;;;6.20;2.00;;;;;;;28.84;100.00;100521.41;104982;1260;60550;-52
2023/08/19 09:12:11;;;;;;;4.30;2.00;;;;;;;28.85;100.00;100526.19;105341;1264;73917;-51
2023/08/19 09:14:40;;;;;;;4.30;1.50;;;;;;;28.86;100.00;100524.61;105067;1261;65645;-51
2023/08/19 09:17:14;;;;;;;1.50;1.40;;;;;;;28.88;100.00;100526.02;104961;1260;72693;-53
2023/08/19 09:19:42;;;;;;;3.40;1.90;;;;;;;28.90;100.00;100529.98;104903;1265;60447;-52
2023/08/19 09:22:19;;;;;;;6.30;1.80;;;;;;;28.92;100.00;100529.63;105019;1260;60518;-53
2023/08/19 09:24:46;;;;;;;2.20;1.30;;;;;;;28.97;100.00;100530.36;104970;1260;73843;-53
2023/08/19 09:27:28;;;;;;;2.70;1.50;;;;;;;29.01;100.00;100530.31;104964;1262;66861;-51
2023/08/19 09:29:55;;;;;;;6.40;1.30;;;;;;;29.03;100.00;100525.12;104991;1260;73036;-51
2023/08/19 09:32:29;;;;;;;3.00;1.60;;;;;;;29.05;100.00;100526.05;104967;1259;60725;-51
2023/08/19 09:35:08;;;;;;;2.90;1.60;;;;;;;29.06;100.00;100533.23;105352;1261;60559;-50
2023/08/19 09:37:35;;;;;;;3.90;1.50;;;;;;;29.08;100.00;100536.36;105095;1258;73081;-52
2023/08/19 09:40:08;;;;;;;3.50;1.40;;;;;;;29.10;100.00;100535.79;105145;1260;66793;-51
2023/08/19 09:42:35;;;;;;;2.20;1.30;;;;;;;29.13;100.00;100533.60;105300;1262;73014;-53
2023/08/19 09:45:04;;;;;;;9.20;1.70;;;;;;;29.17;100.00;100531.10;104905;1260;60568;-52
2023/08/19 09:47:44;;;;;;;2.00;1.60;;;;;;;29.19;100.00;100531.09;108552;1259;60006;-55
2023/08/19 09:50:11;;;;;;;3.70;1.40;;;;;;;29.19;100.00;100529.40;106000;1260;73329;-53
2023/08/19 09:52:40;;;;;;;3.30;1.20;;;;;;;29.20;100.00;100531.44;104977;1261;68766;-53
2023/08/19 09:55:07;;;;;;;11.70;7.20;;;;;;;29.19;100.00;100530.43;105089;1262;72729;-51
2023/08/19 09:57:35;;;;;;;3.50;1.80;;;;;;;29.17;100.00;100531.98;105060;1260;60460;-52
2023/08/19 10:00:06;;;;;;;2.00;1.90;;;;;;;29.14;100.00;100532.39;105090;1262;60975;-52
2023/08/19 10:02:34;;;;;;;1.90;1.50;;;;;;;29.08;100.00;100528.67;105580;1260;73780;-52
2023/08/19 10:05:04;;;;;;;2.90;1.30;;;;;;;29.04;100.00;100523.19;105228;1260;66040;-53
2023/08/19 10:07:32;;;;;;;2.90;1.30;;;;;;;29.02;100.00;100524.50;105255;1259;72179;-53
2023/08/19 10:10:03;;;;;;;2.00;1.20;;;;;;;29.04;100.00;100525.44;104988;1262;60524;-51
2023/08/19 10:12:35;;;;;;;2.10;1.20;;;;;;;29.05;100.00;100529.90;105175;1260;61043;-53
2023/08/19 10:15:03;;;;;;;3.00;1.60;;;;;;;29.05;100.00;100530.48;104905;1258;73904;-52
2023/08/19 10:17:31;;;;;;;3.60;1.40;;;;;;;29.02;100.00;100527.23;104954;1260;67275;-52
2023/08/19 10:20:02;;;;;;;5.60;1.50;;;;;;;28.97;100.00;100523.54;105983;1265;72697;-53
2023/08/19 10:22:33;;;;;;;;;;;;;;;28.92;100.00;100525.95;105424;1259;60473;-51
2023/08/19 10:25:01;;;;;;;4.30;1.30;;;;;;;28.91;100.00;100519.59;105998;1259;60566;-52
2023/08/19 10:27:28;;;;;;;2.90;1.40;;;;;;;28.94;100.00;100525.23;104649;1260;72648;-53
2023/08/19 10:29:58;;;;;;;2.90;1.50;;;;;;;29.01;100.00;100518.86;104991;1260;65822;-53
2023/08/19 10:32:32;;;;;;;4.60;1.60;;;;;;;29.11;100.00;100518.54;104996;1260;73092;-53
2023/08/19 10:35:09;;;;;;;3.20;1.60;;;;;;;29.21;100.00;100516.72;104843;1262;60565;-52
2023/08/19 10:37:41;;;;;;;5.60;1.60;;;;;;;29.30;100.00;100522.49;105102;1260;60614;-52
2023/08/19 10:40:13;;;;;;;2.40;1.60;;;;;;;29.40;100.00;100525.56;105590;1262;73753;-52
2023/08/19 10:42:41;;;;;;;8.40;2.70;;;;;;;29.48;100.00;100523.70;105034;1260;66666;-52
2023/08/19 10:45:17;;;;;;;2.80;1.60;;;;;;;29.55;100.00;100524.64;105374;1262;74094;-52
2023/08/19 10:47:45;;;;;;;3.30;1.30;;;;;;;29.59;100.00;100526.93;105154;1260;60441;-51
2023/08/19 10:50:12;;;;;;;4.00;2.20;;;;;;;29.65;100.00;100526.50;104744;1259;61145;-53
2023/08/19 10:53:19;;;;;;;4.40;1.80;;;;;;;29.68;100.00;100520.21;104869;1263;73848;-52
2023/08/19 10:55:53;;;;;;;3.70;1.50;;;;;;;29.64;100.00;100518.20;104720;1264;67234;-52
2023/08/19 10:58:20;;;;;;;;;;;;;;;29.62;100.00;100513.73;104894;1260;72325;-52
2023/08/19 11:00:48;;;;;;;2.10;1.40;;;;;;;29.62;100.00;100510.89;104982;1260;60514;-53
2023/08/19 11:03:16;;;;;;;5.00;1.70;;;;;;;29.67;100.00;100514.08;104966;1262;62191;-51
2023/08/19 11:05:50;;;;;;;4.30;1.40;;;;;;;29.72;100.00;100511.17;108762;1259;73870;-53
2023/08/19 11:08:18;;;;;;;3.00;1.30;;;;;;;29.78;100.00;100517.05;108730;1259;66741;-54
2023/08/19 11:10:46;;;;;;;3.70;1.70;;;;;;;29.79;100.00;100514.86;106788;1260;71390;-52
2023/08/19 11:13:14;;;;;;;2.20;1.30;;;;;;;29.78;100.00;100514.20;108757;1259;58831;-52
2023/08/19 11:15:41;;;;;;;1.90;1.30;;;;;;;29.77;100.00;100515.60;108696;1258;60096;-53
2023/08/19 11:18:08;;;;;;;1.70;1.20;;;;;;;29.78;100.00;100512.91;108796;1257;72668;-53